»·PEaware :: GTH106 KRDD-KMCC

GTH106 :: KRDD-KMCC

FLIGHT INFORMATION

Flight Status: Arrived
Operator: Unknown
More flights by this operator :: More flights under this callsign
Pilot: Peter M. (9586)
Aircraft: DEHAVILLAND DASH 8 400
(DH8D)
More flights by this aircraft type
Origin: KRDD Redding Mun
United States
Destination: KMCC McClellan
United States
More flights between these airports :: More routes between these airports
Route: +SHA2 DASHE
File this flight plan on PilotEdge
Remarks:
Altitude:
(Current/Filed)
15,000ft
Speed:
(Current/Filed)
300kts
Departed: 22-Feb-19 09:26 PM
Arrived: 22-Feb-19 09:55 PM
Distance/Time
Traveled:
118nm/0:29
Distance/Time
To Go:
Arrived

Flight Plot

Page will automatically refresh every two minutes.

Flight plan parsing failed; only flown route is shown


Map Options




Map Legend


Flown Route
Filed Route
Departure Airport
Arrival Airport
Navaid (VOR, NDB)
Fix

Horizontal Profiles

Position Reports

Time Latitude Longitude Heading Altitude Ground
Speed
22-Feb-19 20:52 40.502752 -122.298054 66 509ft 0kts
22-Feb-19 20:53 40.502752 -122.298054 66 509ft 0kts
22-Feb-19 20:54 40.502752 -122.298054 66 509ft 0kts
22-Feb-19 20:55 40.502752 -122.298054 66 509ft 0kts
22-Feb-19 20:56 40.502752 -122.298054 66 509ft 0kts
22-Feb-19 20:57 40.502752 -122.298054 66 509ft 0kts
22-Feb-19 20:58 40.502752 -122.298054 66 509ft 0kts
22-Feb-19 20:59 40.502752 -122.298054 66 509ft 0kts
22-Feb-19 21:00 40.502752 -122.298053 66 509ft 0kts
22-Feb-19 21:01 40.502752 -122.298053 66 509ft 0kts
22-Feb-19 21:02 40.502752 -122.298053 66 509ft 0kts
22-Feb-19 21:03 40.502752 -122.298053 66 509ft 0kts
22-Feb-19 21:04 40.502752 -122.298053 66 509ft 0kts
22-Feb-19 21:05 40.502752 -122.298053 66 509ft 0kts
22-Feb-19 21:06 40.502752 -122.298053 66 509ft 0kts
22-Feb-19 21:07 40.502752 -122.298053 66 509ft 0kts
22-Feb-19 21:08 40.502752 -122.298053 66 509ft 0kts
22-Feb-19 21:09 40.502752 -122.298053 66 509ft 0kts
22-Feb-19 21:10 40.502752 -122.298053 66 509ft 0kts
22-Feb-19 21:11 40.502752 -122.298053 66 509ft 0kts
22-Feb-19 21:12 40.502752 -122.298053 66 509ft 0kts
22-Feb-19 21:13 40.502752 -122.298053 66 509ft 0kts
22-Feb-19 21:14 40.502752 -122.298053 66 509ft 0kts
22-Feb-19 21:15 40.502752 -122.298053 66 509ft 0kts
22-Feb-19 21:16 40.502752 -122.298053 66 509ft 0kts
22-Feb-19 21:17 40.502854 -122.297901 40 509ft 5kts
22-Feb-19 21:18 40.506599 -122.298603 355 509ft 17kts
22-Feb-19 21:19 40.509857 -122.296403 0 509ft 0kts
22-Feb-19 21:20 40.513456 -122.296375 359 509ft 33kts
22-Feb-19 21:21 40.520184 -122.295981 80 509ft 7kts
22-Feb-19 21:22 40.520186 -122.295969 80 509ft 0kts
22-Feb-19 21:23 40.520186 -122.295969 80 509ft 0kts
22-Feb-19 21:24 40.519739 -122.294896 177 509ft 0kts
22-Feb-19 21:25 40.491360 -122.295438 184 1662ft 157kts
22-Feb-19 21:26 40.435340 -122.293863 176 3559ft 245kts
22-Feb-19 21:27 40.364143 -122.282313 155 5047ft 250kts
22-Feb-19 21:28 40.298516 -122.243081 153 6560ft 271kts
22-Feb-19 21:29 40.230062 -122.202019 153 8050ft 275kts
22-Feb-19 21:30 40.161121 -122.160806 152 9535ft 276kts
22-Feb-19 21:31 40.091166 -122.119449 152 11021ft 281kts
22-Feb-19 21:32 40.019205 -122.076905 151 12508ft 305kts
22-Feb-19 21:34 39.938684 -122.028432 151 14012ft 336kts
22-Feb-19 21:35 39.851003 -121.975720 152 14915ft 373kts
22-Feb-19 21:36 39.755676 -121.919005 153 14946ft 373kts
22-Feb-19 21:37 39.665350 -121.865767 152 14942ft 351kts
22-Feb-19 21:38 39.579027 -121.815046 152 14936ft 339kts
22-Feb-19 21:39 39.494932 -121.765759 152 14933ft 331kts
22-Feb-19 21:40 39.412197 -121.717233 152 14925ft 327kts
22-Feb-19 21:41 39.333899 -121.671589 152 14701ft 300kts
22-Feb-19 21:42 39.261458 -121.629390 152 13422ft 281kts
22-Feb-19 21:43 39.192991 -121.589327 152 11933ft 270kts
22-Feb-19 21:44 39.127176 -121.550637 152 10435ft 248kts
22-Feb-19 21:45 39.068722 -121.516310 153 8960ft 225kts
22-Feb-19 21:46 39.015004 -121.485101 154 7474ft 207kts
22-Feb-19 21:47 38.964545 -121.456060 154 5976ft 194kts
22-Feb-19 21:48 38.918095 -121.429505 153 4457ft 170kts
22-Feb-19 21:49 38.873573 -121.404436 161 2953ft 168kts
22-Feb-19 21:50 38.828130 -121.400417 177 1925ft 149kts
22-Feb-19 21:51 38.784481 -121.398917 180 2092ft 160kts
22-Feb-19 21:52 38.739727 -121.401633 182 1218ft 158kts
22-Feb-19 21:53 38.700300 -121.400688 183 480ft 146kts
22-Feb-19 21:53 38.671714 -121.400569 181 83ft 76kts
22-Feb-19 21:54 38.660017 -121.400171 119 82ft 16kts
22-Feb-19 21:56 38.660889 -121.394846 114 82ft 7kts
22-Feb-19 21:56 38.660196 -121.394064 142 82ft 0kts
22-Feb-19 21:57 38.660196 -121.394064 142 82ft 0kts
22-Feb-19 21:58 38.660196 -121.394064 142 82ft 0kts
22-Feb-19 22:00 38.660196 -121.394064 142 82ft 0kts
22-Feb-19 22:00 38.660196 -121.394064 142 82ft 0kts
22-Feb-19 22:01 38.660196 -121.394064 142 82ft 0kts
22-Feb-19 22:02 38.660196 -121.394064 142 82ft 0kts
22-Feb-19 22:03 38.660196 -121.394064 142 82ft 0kts
22-Feb-19 22:04 38.660196 -121.394064 142 82ft 0kts
22-Feb-19 22:05 38.660196 -121.394064 142 82ft 0kts
22-Feb-19 22:06 38.660196 -121.394064 142 82ft 0kts
22-Feb-19 22:07 38.660196 -121.394064 142 82ft 0kts

Navigation Log

Ident Type
Flight plan parsing failed, navigation log unavailable